createdAt,value
2018-01-20T00:00:13.888Z,0.00
2018-01-20T00:02:41.939Z,-0.10
2018-01-20T00:05:10.050Z,-0.10
2018-01-20T00:07:38.021Z,0.00
2018-01-20T00:10:17.679Z,0.00
2018-01-20T00:12:45.827Z,0.00
2018-01-20T00:15:13.870Z,0.00
2018-01-20T00:17:41.941Z,0.10
2018-01-20T00:20:10.822Z,0.20
2018-01-20T00:22:38.835Z,0.20
2018-01-20T00:25:06.906Z,0.20
2018-01-20T00:27:42.333Z,0.20
2018-01-20T00:30:10.451Z,0.20
2018-01-20T00:32:39.199Z,0.20
2018-01-20T00:35:08.293Z,0.20
2018-01-20T00:37:37.159Z,0.20
2018-01-20T00:40:05.258Z,0.20
2018-01-20T00:42:34.150Z,0.20
2018-01-20T00:45:02.416Z,0.30
2018-01-20T00:47:30.461Z,0.40
2018-01-20T00:49:58.428Z,0.40
2018-01-20T00:52:26.541Z,0.60
2018-01-20T00:54:55.462Z,0.60
2018-01-20T00:57:23.732Z,0.70
2018-01-20T00:59:52.378Z,0.70
2018-01-20T01:02:20.349Z,0.80
2018-01-20T01:04:48.429Z,0.80
2018-01-20T01:07:16.500Z,0.80
2018-01-20T01:09:45.470Z,0.70
2018-01-20T01:12:15.209Z,0.70
2018-01-20T01:14:43.321Z,0.80
2018-01-20T01:17:11.466Z,0.80
2018-01-20T01:19:40.508Z,0.80
2018-01-20T01:22:09.145Z,0.90
2018-01-20T01:24:37.178Z,0.90
2018-01-20T01:27:05.223Z,0.90
2018-01-20T01:29:34.193Z,0.90
2018-01-20T01:32:03.029Z,0.90
2018-01-20T01:34:31.109Z,0.90
2018-01-20T01:36:59.173Z,0.80
2018-01-20T01:39:27.200Z,0.80
2018-01-20T01:41:55.221Z,0.80
2018-01-20T01:44:23.967Z,0.70
2018-01-20T01:46:57.736Z,0.70
2018-01-20T01:49:25.699Z,0.70
2018-01-20T01:51:53.802Z,0.60
2018-01-20T01:54:21.858Z,0.60
2018-01-20T01:56:49.896Z,0.60
2018-01-20T01:59:17.970Z,0.50
2018-01-20T02:01:46.052Z,0.50
2018-01-20T02:04:13.999Z,0.50
2018-01-20T02:06:42.113Z,0.40
2018-01-20T02:09:10.112Z,0.40
2018-01-20T02:11:38.136Z,0.40
2018-01-20T02:14:06.214Z,0.30
2018-01-20T02:16:34.172Z,0.30
2018-01-20T02:19:02.220Z,0.20
2018-01-20T02:21:30.260Z,0.20
2018-01-20T02:23:58.273Z,0.20
2018-01-20T02:26:26.991Z,0.20
2018-01-20T02:28:54.973Z,0.10
2018-01-20T02:31:22.897Z,0.20
2018-01-20T02:33:50.907Z,0.20
2018-01-20T02:36:18.910Z,0.30
2018-01-20T02:38:46.921Z,0.30
2018-01-20T02:41:14.854Z,0.40
2018-01-20T02:43:43.604Z,0.50
2018-01-20T02:46:11.714Z,0.40
2018-01-20T02:48:39.754Z,0.60
2018-01-20T02:51:07.745Z,0.60
2018-01-20T02:53:36.556Z,0.70
2018-01-20T02:56:04.538Z,0.60
2018-01-20T02:58:32.606Z,0.70
2018-01-20T03:01:00.551Z,0.60
2018-01-20T03:03:28.530Z,0.50
2018-01-20T03:05:56.478Z,0.50
2018-01-20T03:08:24.430Z,0.50
2018-01-20T03:10:52.419Z,0.50
2018-01-20T03:13:20.477Z,0.60
2018-01-20T03:15:48.529Z,0.70
2018-01-20T03:18:16.477Z,0.80
2018-01-20T03:20:44.482Z,0.80
2018-01-20T03:23:12.500Z,0.70
2018-01-20T03:25:40.558Z,0.70
2018-01-20T03:28:08.539Z,0.70
2018-01-20T03:30:36.490Z,0.70
2018-01-20T03:33:04.487Z,0.70
2018-01-20T03:35:33.242Z,0.60
2018-01-20T03:38:02.414Z,0.60
2018-01-20T03:40:30.455Z,0.60
2018-01-20T03:42:59.142Z,0.60
2018-01-20T03:45:27.882Z,0.50
2018-01-20T03:47:55.805Z,0.50
2018-01-20T03:50:23.787Z,0.40
2018-01-20T03:52:51.754Z,0.40
2018-01-20T03:55:19.734Z,0.30
2018-01-20T03:57:47.728Z,0.20
2018-01-20T04:00:15.731Z,0.20
2018-01-20T04:02:44.487Z,0.10
2018-01-20T04:05:12.477Z,0.10
2018-01-20T04:07:40.526Z,0.10
2018-01-20T04:10:08.516Z,0.20
2018-01-20T04:12:36.545Z,0.20
2018-01-20T04:15:04.518Z,0.30
2018-01-20T04:17:32.508Z,0.20
2018-01-20T04:20:00.451Z,0.20
2018-01-20T04:22:28.433Z,0.20
2018-01-20T04:24:56.333Z,0.20
2018-01-20T04:27:24.352Z,0.30
2018-01-20T04:29:52.286Z,0.40
2018-01-20T04:32:20.283Z,0.40
2018-01-20T04:34:49.065Z,0.40
2018-01-20T04:37:18.984Z,0.30
2018-01-20T04:39:46.972Z,0.30
2018-01-20T04:42:15.043Z,0.30
2018-01-20T04:44:42.984Z,0.30
2018-01-20T04:47:11.028Z,0.30
2018-01-20T04:49:38.978Z,0.40
2018-01-20T04:52:06.990Z,0.40
2018-01-20T04:54:34.985Z,0.30
2018-01-20T04:57:03.020Z,0.40
2018-01-20T04:59:32.216Z,0.20
2018-01-20T05:02:00.245Z,0.20
2018-01-20T05:04:28.449Z,0.10
2018-01-20T05:07:03.407Z,0.10
2018-01-20T05:09:33.748Z,0.00
2018-01-20T05:12:06.271Z,0.20
2018-01-20T05:14:36.704Z,0.10
2018-01-20T05:17:09.400Z,0.20
2018-01-20T05:19:39.908Z,0.20
2018-01-20T05:22:10.869Z,0.20
2018-01-20T05:24:42.907Z,0.20
2018-01-20T05:27:13.426Z,0.20
2018-01-20T05:29:44.275Z,0.20
2018-01-20T05:32:16.053Z,0.10
2018-01-20T05:34:46.009Z,0.10
2018-01-20T05:37:14.188Z,0.00
2018-01-20T05:39:42.111Z,0.00
2018-01-20T05:42:10.052Z,-0.10
2018-01-20T05:44:38.073Z,-0.10
2018-01-20T05:47:05.973Z,-0.20
2018-01-20T05:49:34.768Z,-0.20
2018-01-20T05:52:02.703Z,-0.20
2018-01-20T05:54:30.677Z,-0.20
2018-01-20T05:56:58.592Z,-0.30
2018-01-20T05:59:26.581Z,-0.20
2018-01-20T06:01:54.527Z,-0.20
2018-01-20T06:04:22.471Z,-0.10
2018-01-20T06:06:50.574Z,0.00
2018-01-20T06:09:18.556Z,0.00
2018-01-20T06:11:46.455Z,0.00
2018-01-20T06:14:14.431Z,0.10
2018-01-20T06:16:42.342Z,0.20
2018-01-20T06:19:10.360Z,0.20
2018-01-20T06:21:38.277Z,0.30
2018-01-20T06:24:06.256Z,0.50
2018-01-20T06:26:34.181Z,0.50
2018-01-20T06:29:02.138Z,0.70
2018-01-20T06:31:30.052Z,0.80
2018-01-20T06:33:58.769Z,0.80
2018-01-20T06:36:26.816Z,0.80
2018-01-20T06:38:55.539Z,1.00
2018-01-20T06:41:23.451Z,0.90
2018-01-20T06:43:51.401Z,1.00
2018-01-20T06:46:19.415Z,1.00
2018-01-20T06:48:48.122Z,1.00
2018-01-20T06:51:16.100Z,0.90
2018-01-20T06:53:44.026Z,0.90
2018-01-20T06:56:12.136Z,1.00
2018-01-20T06:58:40.096Z,0.90
2018-01-20T07:01:08.829Z,0.90
2018-01-20T07:03:36.751Z,0.90
2018-01-20T07:06:05.065Z,0.90
2018-01-20T07:08:33.002Z,0.90
2018-01-20T07:11:00.982Z,0.90
2018-01-20T07:13:28.982Z,0.80
2018-01-20T07:15:57.000Z,0.90
2018-01-20T07:18:24.974Z,0.90
2018-01-20T07:20:53.710Z,0.90
2018-01-20T07:23:21.616Z,0.90
2018-01-20T07:25:49.568Z,1.00
2018-01-20T07:28:17.585Z,1.00
2018-01-20T07:30:45.543Z,1.00
2018-01-20T07:33:13.505Z,1.00
2018-01-20T07:35:41.475Z,1.00
2018-01-20T07:38:09.389Z,0.90
2018-01-20T07:40:37.364Z,0.90
2018-01-20T07:43:05.258Z,0.80
2018-01-20T07:45:33.208Z,0.80
2018-01-20T07:48:03.467Z,0.90
2018-01-20T07:50:31.442Z,0.90
2018-01-20T07:53:00.150Z,1.10
2018-01-20T07:55:28.060Z,1.10
2018-01-20T07:57:56.049Z,1.10
2018-01-20T08:00:24.056Z,1.10
2018-01-20T08:02:52.792Z,1.10
2018-01-20T08:05:20.713Z,1.10
2018-01-20T08:07:48.664Z,1.10
2018-01-20T08:10:16.639Z,1.10
2018-01-20T08:12:47.748Z,1.20
2018-01-20T08:15:15.864Z,1.20
2018-01-20T08:17:44.615Z,1.40
2018-01-20T08:20:12.512Z,1.30
2018-01-20T08:22:40.498Z,1.40
2018-01-20T08:25:08.497Z,1.60
2018-01-20T08:27:36.443Z,1.60
2018-01-20T08:30:04.425Z,1.80
2018-01-20T08:32:32.437Z,1.80
2018-01-20T08:35:00.348Z,1.90
2018-01-20T08:37:28.367Z,1.90
2018-01-20T08:39:56.313Z,1.90
2018-01-20T08:42:24.300Z,2.10
2018-01-20T08:44:52.270Z,2.20
2018-01-20T08:47:23.964Z,2.20
2018-01-20T08:49:51.890Z,2.30
2018-01-20T08:52:19.868Z,2.30
2018-01-20T08:54:47.789Z,2.40
2018-01-20T08:57:16.533Z,2.40
2018-01-20T08:59:44.867Z,2.40
2018-01-20T09:02:13.736Z,2.60
2018-01-20T09:04:42.290Z,2.50
2018-01-20T09:07:10.258Z,2.70
2018-01-20T09:09:38.235Z,2.80
2018-01-20T09:12:06.883Z,2.90
2018-01-20T09:14:36.504Z,3.00
2018-01-20T09:17:05.637Z,3.00
2018-01-20T09:19:33.797Z,3.10
2018-01-20T09:22:01.787Z,3.10
2018-01-20T09:24:29.733Z,3.10
2018-01-20T09:26:57.617Z,3.20
2018-01-20T09:29:25.540Z,3.20
2018-01-20T09:31:53.443Z,3.30
2018-01-20T09:34:23.410Z,3.40
2018-01-20T09:36:52.119Z,3.50
2018-01-20T09:39:20.065Z,3.50
2018-01-20T09:41:47.983Z,3.80
2018-01-20T09:44:15.917Z,3.90
2018-01-20T09:46:45.910Z,3.80
2018-01-20T09:49:14.087Z,3.90
2018-01-20T09:51:41.976Z,3.80
2018-01-20T09:54:09.947Z,3.70
2018-01-20T09:56:38.989Z,3.80
2018-01-20T09:59:06.992Z,3.80
2018-01-20T10:01:35.053Z,4.00
2018-01-20T10:04:04.056Z,3.80
2018-01-20T10:06:32.140Z,3.70
2018-01-20T10:09:00.067Z,3.70
2018-01-20T10:11:28.006Z,3.80
2018-01-20T10:13:58.079Z,3.90
2018-01-20T10:16:26.208Z,3.80
2018-01-20T10:18:54.130Z,3.80
2018-01-20T10:21:22.102Z,3.90
2018-01-20T10:23:50.079Z,3.90
2018-01-20T10:26:18.824Z,3.60
2018-01-20T10:28:46.741Z,3.60
2018-01-20T10:31:14.730Z,3.70
2018-01-20T10:33:42.649Z,3.60
2018-01-20T10:36:10.749Z,3.60
2018-01-20T10:38:40.831Z,3.60
2018-01-20T10:41:11.696Z,3.50
2018-01-20T10:43:39.654Z,3.50
2018-01-20T10:46:10.377Z,3.60
2018-01-20T10:48:38.328Z,3.60
2018-01-20T10:51:06.358Z,3.60
2018-01-20T10:53:35.281Z,3.50
2018-01-20T10:56:08.910Z,3.50
2018-01-20T10:58:36.857Z,3.60
2018-01-20T11:01:04.887Z,3.70
2018-01-20T11:03:32.860Z,3.80
2018-01-20T11:06:01.756Z,3.60
2018-01-20T11:08:29.859Z,3.60
2018-01-20T11:10:57.884Z,3.70
2018-01-20T11:13:25.834Z,3.50
2018-01-20T11:15:53.952Z,3.60
2018-01-20T11:18:21.847Z,3.50
2018-01-20T11:20:49.829Z,3.40
2018-01-20T11:23:17.737Z,3.40
2018-01-20T11:25:45.650Z,3.40
2018-01-20T11:28:14.417Z,3.20
2018-01-20T11:30:42.357Z,3.20
2018-01-20T11:33:10.351Z,3.30
2018-01-20T11:35:38.245Z,3.40
2018-01-20T11:38:08.365Z,3.30
2018-01-20T11:40:36.267Z,3.40
2018-01-20T11:43:04.244Z,3.30
2018-01-20T11:45:32.128Z,3.20
2018-01-20T11:48:00.061Z,3.20
2018-01-20T11:50:27.935Z,3.20
2018-01-20T11:52:55.892Z,3.20
2018-01-20T11:55:23.796Z,3.20
2018-01-20T11:57:51.779Z,3.30
2018-01-20T12:00:19.767Z,3.20
2018-01-20T12:02:47.780Z,3.20
2018-01-20T12:05:15.680Z,3.00
2018-01-20T12:07:43.610Z,3.00
2018-01-20T12:10:11.537Z,3.00
2018-01-20T12:12:39.718Z,3.00
2018-01-20T12:15:08.417Z,2.90
2018-01-20T12:20:04.353Z,2.90
2018-01-20T12:22:32.391Z,2.90
2018-01-20T12:25:00.387Z,2.80
2018-01-20T12:27:28.349Z,2.80
2018-01-20T12:29:57.136Z,2.80
2018-01-20T12:32:25.079Z,2.80
2018-01-20T12:34:53.069Z,2.80
2018-01-20T12:37:23.163Z,2.80
2018-01-20T12:39:51.186Z,2.90
2018-01-20T12:42:19.919Z,2.80
2018-01-20T12:44:50.541Z,2.80
2018-01-20T12:47:19.873Z,2.70
2018-01-20T12:49:47.890Z,2.70
2018-01-20T12:52:15.858Z,2.80
2018-01-20T12:54:43.806Z,2.70
2018-01-20T12:57:11.719Z,2.80
2018-01-20T12:59:39.647Z,2.70
2018-01-20T13:02:07.519Z,2.70
2018-01-20T13:04:36.213Z,2.80
2018-01-20T13:07:04.928Z,2.80
2018-01-20T13:09:32.862Z,2.80
2018-01-20T13:12:00.835Z,2.90
2018-01-20T13:14:28.768Z,2.80
2018-01-20T13:16:56.642Z,2.80
2018-01-20T13:19:24.577Z,2.70
2018-01-20T13:21:52.462Z,2.60
2018-01-20T13:24:20.395Z,2.70
2018-01-20T13:26:48.263Z,2.70
2018-01-20T13:29:16.242Z,2.70
2018-01-20T13:31:44.131Z,2.70
2018-01-20T13:34:12.002Z,2.60
2018-01-20T13:36:43.407Z,2.60
2018-01-20T13:39:11.309Z,2.70
2018-01-20T13:41:39.258Z,2.70
2018-01-20T13:44:07.140Z,2.70
2018-01-20T13:46:35.130Z,2.50
2018-01-20T13:49:03.119Z,2.50
2018-01-20T13:51:31.080Z,2.60
2018-01-20T13:53:59.010Z,2.50
2018-01-20T13:56:26.962Z,2.50
2018-01-20T13:58:55.688Z,2.50
2018-01-20T14:01:23.698Z,2.50
2018-01-20T14:03:51.640Z,2.50
2018-01-20T14:06:20.867Z,2.40
2018-01-20T14:08:48.897Z,2.50
2018-01-20T14:11:16.930Z,2.40
2018-01-20T14:13:45.709Z,2.30
2018-01-20T14:16:13.687Z,2.30
2018-01-20T14:18:42.428Z,2.30
2018-01-20T14:21:10.494Z,2.30
2018-01-20T14:23:38.507Z,2.30
2018-01-20T14:26:06.516Z,2.20
2018-01-20T14:28:34.452Z,2.20
2018-01-20T14:31:02.451Z,2.10
2018-01-20T14:33:30.452Z,2.20
2018-01-20T14:35:58.445Z,2.20
2018-01-20T14:38:26.408Z,2.10
2018-01-20T14:40:54.490Z,2.10
2018-01-20T14:43:22.421Z,2.00
2018-01-20T14:45:50.331Z,2.00
2018-01-20T14:48:18.286Z,2.10
2018-01-20T14:50:46.237Z,2.00
2018-01-20T14:53:14.232Z,2.00
2018-01-20T14:55:42.138Z,2.00
2018-01-20T14:58:18.096Z,2.00
2018-01-20T15:00:46.774Z,1.90
2018-01-20T15:03:15.558Z,1.90
2018-01-20T15:05:43.456Z,1.90
2018-01-20T15:08:11.444Z,1.90
2018-01-20T15:10:39.338Z,1.90
2018-01-20T15:13:07.288Z,1.90
2018-01-20T15:15:35.221Z,1.90
2018-01-20T15:18:03.168Z,1.90
2018-01-20T15:20:31.077Z,1.90
2018-01-20T15:22:59.005Z,1.90
2018-01-20T15:25:26.910Z,1.80
2018-01-20T15:27:54.922Z,1.80
2018-01-20T15:30:22.819Z,1.80
2018-01-20T15:32:50.760Z,1.80
2018-01-20T15:35:18.653Z,1.80
2018-01-20T15:37:46.597Z,1.70
2018-01-20T15:40:14.531Z,1.60
2018-01-20T15:42:42.472Z,1.60
2018-01-20T15:45:10.358Z,1.60
2018-01-20T15:47:38.267Z,1.60
2018-01-20T15:50:06.264Z,1.60
2018-01-20T15:52:34.156Z,1.60
2018-01-20T15:55:02.108Z,1.60
2018-01-20T15:57:30.207Z,1.60
2018-01-20T15:59:58.197Z,1.60
2018-01-20T16:02:26.116Z,1.60
2018-01-20T16:04:54.072Z,1.50
2018-01-20T16:07:22.011Z,1.50
2018-01-20T16:09:50.003Z,1.50
2018-01-20T16:12:17.910Z,1.40
2018-01-20T16:14:45.853Z,1.40
2018-01-20T16:17:13.756Z,1.40
2018-01-20T16:19:41.721Z,1.40
2018-01-20T16:22:09.611Z,1.40
2018-01-20T16:24:37.580Z,1.40
2018-01-20T16:27:05.470Z,1.30
2018-01-20T16:29:34.204Z,1.30
2018-01-20T16:32:02.096Z,1.20
2018-01-20T16:34:30.068Z,1.30
2018-01-20T16:36:58.732Z,1.20
2018-01-20T16:39:26.705Z,1.20
2018-01-20T16:41:54.654Z,1.20
2018-01-20T16:44:22.669Z,1.20
2018-01-20T16:46:50.632Z,1.20
2018-01-20T16:49:18.693Z,1.20
2018-01-20T16:51:47.406Z,1.10
2018-01-20T16:54:15.373Z,1.10
2018-01-20T16:56:44.381Z,1.10
2018-01-20T16:59:12.369Z,1.20
2018-01-20T17:01:40.411Z,1.20
2018-01-20T17:04:08.389Z,1.20
2018-01-20T17:06:36.407Z,1.20
2018-01-20T17:09:05.936Z,1.30
2018-01-20T17:11:34.768Z,1.30
2018-01-20T17:14:04.003Z,1.20
2018-01-20T17:16:32.029Z,1.20
2018-01-20T17:18:59.944Z,1.30
2018-01-20T17:21:28.027Z,1.30
2018-01-20T17:23:59.536Z,1.30
2018-01-20T17:26:27.695Z,1.30
2018-01-20T17:28:55.825Z,1.30
2018-01-20T17:31:23.913Z,1.30
2018-01-20T17:33:51.889Z,1.40
2018-01-20T17:36:19.913Z,1.40
2018-01-20T17:38:47.969Z,1.40
2018-01-20T17:41:21.635Z,1.40
2018-01-20T17:46:55.548Z,1.30
2018-01-20T17:49:25.922Z,1.40
2018-01-20T17:51:54.957Z,1.40
2018-01-20T17:54:26.266Z,1.40
2018-01-20T18:02:59.107Z,1.40
2018-01-20T18:19:57.275Z,1.30
2018-01-20T18:22:34.765Z,1.30
2018-01-20T18:25:05.436Z,1.30
2018-01-20T18:27:33.955Z,1.40
2018-01-20T18:30:14.497Z,1.40
2018-01-20T18:32:43.440Z,1.40
2018-01-20T18:35:27.744Z,1.30
2018-01-20T18:37:58.150Z,1.40
2018-01-20T18:40:29.171Z,1.30
2018-01-20T18:42:57.346Z,1.30
2018-01-20T18:48:15.312Z,1.20
2018-01-20T18:50:43.439Z,1.20
2018-01-20T18:53:11.542Z,1.20
2018-01-20T18:55:39.637Z,1.30
2018-01-20T18:58:07.839Z,1.40
2018-01-20T19:00:35.914Z,1.40
2018-01-20T19:03:04.045Z,1.50
2018-01-20T19:05:32.100Z,1.50
2018-01-20T19:08:03.643Z,1.50
2018-01-20T19:10:31.672Z,1.60
2018-01-20T19:12:59.768Z,1.50
2018-01-20T19:15:27.945Z,1.60
2018-01-20T19:17:56.717Z,1.60
2018-01-20T19:20:24.754Z,1.60
2018-01-20T19:22:58.282Z,1.50
2018-01-20T19:25:29.144Z,1.60
2018-01-20T19:28:07.598Z,1.60
2018-01-20T20:16:39.929Z,1.30
2018-01-20T20:19:07.956Z,1.30
2018-01-20T20:21:36.163Z,1.40
2018-01-20T20:24:04.739Z,1.30
2018-01-20T20:26:32.881Z,1.20
2018-01-20T20:29:00.926Z,1.20
2018-01-20T20:31:28.996Z,1.30
2018-01-20T20:33:57.760Z,1.30
2018-01-20T20:36:25.936Z,1.30
2018-01-20T20:38:53.977Z,1.40
2018-01-20T20:41:22.101Z,1.40
2018-01-20T20:43:50.117Z,1.40
2018-01-20T20:46:18.258Z,1.50
2018-01-20T20:48:47.126Z,1.40
2018-01-20T20:51:15.162Z,1.40
2018-01-20T20:53:43.219Z,1.50
2018-01-20T20:56:12.068Z,1.50
2018-01-20T20:58:40.553Z,1.50
2018-01-20T21:01:08.618Z,1.50
2018-01-20T21:03:36.606Z,1.40
2018-01-20T21:06:04.700Z,1.50
2018-01-20T21:08:33.605Z,1.40
2018-01-20T21:11:01.735Z,1.40
2018-01-20T21:13:29.783Z,1.40
2018-01-20T21:15:57.894Z,1.40
2018-01-20T21:18:28.587Z,1.30
2018-01-20T21:20:56.811Z,1.30
2018-01-20T21:23:25.094Z,1.30
2018-01-20T21:25:56.665Z,1.40
2018-01-20T21:28:24.830Z,1.40
2018-01-20T21:30:53.032Z,1.40
2018-01-20T21:33:21.119Z,1.50
2018-01-20T21:35:49.426Z,1.40
2018-01-20T21:38:17.476Z,1.40
2018-01-20T21:40:45.510Z,1.40
2018-01-20T21:43:13.688Z,1.50
2018-01-20T21:45:41.725Z,1.40
2018-01-20T21:48:09.969Z,1.50
2018-01-20T21:50:39.075Z,1.40
2018-01-20T21:53:09.843Z,1.40
2018-01-20T21:55:37.981Z,1.40
2018-01-20T21:58:06.205Z,1.40
2018-01-20T22:00:36.464Z,1.40
2018-01-20T22:03:04.624Z,1.40
2018-01-20T22:05:32.681Z,1.40
2018-01-20T22:08:00.774Z,1.40
2018-01-20T22:10:28.917Z,1.50
2018-01-20T22:12:57.499Z,1.50
2018-01-20T22:15:26.342Z,1.50
2018-01-20T22:17:54.483Z,1.40
2018-01-20T22:20:22.465Z,1.50
2018-01-20T22:22:50.654Z,1.50
2018-01-20T22:25:22.521Z,1.50
2018-01-20T22:27:51.888Z,1.50
2018-01-20T22:30:19.994Z,1.50
2018-01-20T22:32:48.073Z,1.50
2018-01-20T22:35:16.150Z,1.50
2018-01-20T22:37:44.294Z,1.50
2018-01-20T22:40:12.492Z,1.50
2018-01-20T22:42:40.520Z,1.50
2018-01-20T22:45:08.562Z,1.50
2018-01-20T22:47:36.587Z,1.50
2018-01-20T22:50:04.827Z,1.50
2018-01-20T22:52:33.685Z,1.50
2018-01-20T22:55:01.723Z,1.40
2018-01-20T22:57:31.845Z,1.50
2018-01-20T22:59:59.924Z,1.50
2018-01-20T23:02:27.942Z,1.50
2018-01-20T23:04:56.125Z,1.50
2018-01-20T23:07:24.149Z,1.50
2018-01-20T23:09:52.134Z,1.50
2018-01-20T23:12:22.969Z,1.50
2018-01-20T23:14:51.157Z,1.50
2018-01-20T23:17:19.122Z,1.50
2018-01-20T23:19:47.121Z,1.50
2018-01-20T23:22:15.435Z,1.50
2018-01-20T23:24:43.460Z,1.50
2018-01-20T23:27:11.523Z,1.50
2018-01-20T23:29:39.619Z,1.50
2018-01-20T23:32:07.612Z,1.60
2018-01-20T23:34:36.365Z,1.60
2018-01-20T23:37:04.400Z,1.50
2018-01-20T23:39:32.437Z,1.60
2018-01-20T23:42:03.354Z,1.60
2018-01-20T23:44:31.621Z,1.60
2018-01-20T23:46:59.688Z,1.60
2018-01-20T23:49:27.729Z,1.60
2018-01-20T23:51:55.760Z,1.60
2018-01-20T23:54:23.795Z,1.60
2018-01-20T23:56:52.564Z,1.70
2018-01-20T23:59:20.582Z,1.70
